sensor_id;sensor_type;location;lat;lon;timestamp;P1;durP1;ratioP1;P2;durP2;ratioP2
18174;SDS011;9212;50.894;16.714;2022-09-01T00:01:42;3.73;;;1.63;;
18174;SDS011;9212;50.894;16.714;2022-09-01T00:04:12;3.20;;;1.90;;
18174;SDS011;9212;50.894;16.714;2022-09-01T00:06:41;3.53;;;1.90;;
18174;SDS011;9212;50.894;16.714;2022-09-01T00:09:09;3.07;;;1.83;;
18174;SDS011;9212;50.894;16.714;2022-09-01T00:11:40;3.00;;;1.47;;
18174;SDS011;9212;50.894;16.714;2022-09-01T00:14:09;1.60;;;1.50;;
18174;SDS011;9212;50.894;16.714;2022-09-01T00:16:36;5.57;;;1.60;;
18174;SDS011;9212;50.894;16.714;2022-09-01T00:19:04;2.67;;;1.90;;
18174;SDS011;9212;50.894;16.714;2022-09-01T00:21:32;3.87;;;1.80;;
18174;SDS011;9212;50.894;16.714;2022-09-01T00:24:03;2.20;;;1.80;;
18174;SDS011;9212;50.894;16.714;2022-09-01T00:26:32;2.10;;;1.90;;
18174;SDS011;9212;50.894;16.714;2022-09-01T00:28:59;5.03;;;2.23;;
18174;SDS011;9212;50.894;16.714;2022-09-01T00:31:26;4.27;;;1.70;;
18174;SDS011;9212;50.894;16.714;2022-09-01T00:33:53;4.27;;;1.93;;
18174;SDS011;9212;50.894;16.714;2022-09-01T00:36:21;5.37;;;1.77;;
18174;SDS011;9212;50.894;16.714;2022-09-01T00:38:49;1.67;;;1.57;;
18174;SDS011;9212;50.894;16.714;2022-09-01T00:41:17;2.57;;;1.80;;
18174;SDS011;9212;50.894;16.714;2022-09-01T00:43:48;4.93;;;1.90;;
18174;SDS011;9212;50.894;16.714;2022-09-01T00:46:17;4.80;;;1.80;;
18174;SDS011;9212;50.894;16.714;2022-09-01T00:48:45;4.30;;;1.80;;
18174;SDS011;9212;50.894;16.714;2022-09-01T00:51:16;1.77;;;1.67;;
18174;SDS011;9212;50.894;16.714;2022-09-01T00:53:43;3.27;;;2.27;;
18174;SDS011;9212;50.894;16.714;2022-09-01T00:56:11;2.17;;;1.97;;
18174;SDS011;9212;50.894;16.714;2022-09-01T00:58:39;1.97;;;1.87;;
18174;SDS011;9212;50.894;16.714;2022-09-01T01:01:09;2.50;;;2.17;;
18174;SDS011;9212;50.894;16.714;2022-09-01T01:03:36;2.20;;;2.00;;
18174;SDS011;9212;50.894;16.714;2022-09-01T01:06:09;3.27;;;2.37;;
18174;SDS011;9212;50.894;16.714;2022-09-01T01:08:39;3.10;;;2.20;;
18174;SDS011;9212;50.894;16.714;2022-09-01T01:11:23;4.97;;;2.60;;
18174;SDS011;9212;50.894;16.714;2022-09-01T01:13:52;5.13;;;1.80;;
18174;SDS011;9212;50.894;16.714;2022-09-01T01:16:25;1.87;;;1.77;;
18174;SDS011;9212;50.894;16.714;2022-09-01T01:18:53;3.57;;;2.20;;
18174;SDS011;9212;50.894;16.714;2022-09-01T01:21:23;8.47;;;2.30;;
18174;SDS011;9212;50.894;16.714;2022-09-01T01:24:23;3.57;;;2.23;;
18174;SDS011;9212;50.894;16.714;2022-09-01T01:26:51;2.77;;;2.33;;
18174;SDS011;9212;50.894;16.714;2022-09-01T01:29:21;4.27;;;2.13;;
18174;SDS011;9212;50.894;16.714;2022-09-01T01:31:49;4.00;;;2.10;;
18174;SDS011;9212;50.894;16.714;2022-09-01T01:34:18;2.63;;;2.33;;
18174;SDS011;9212;50.894;16.714;2022-09-01T01:36:45;2.40;;;2.17;;
18174;SDS011;9212;50.894;16.714;2022-09-01T01:39:15;4.07;;;2.03;;
18174;SDS011;9212;50.894;16.714;2022-09-01T01:41:45;6.33;;;2.37;;
18174;SDS011;9212;50.894;16.714;2022-09-01T01:44:15;2.53;;;2.10;;
18174;SDS011;9212;50.894;16.714;2022-09-01T01:46:46;2.43;;;1.90;;
18174;SDS011;9212;50.894;16.714;2022-09-01T01:49:15;2.07;;;1.90;;
18174;SDS011;9212;50.894;16.714;2022-09-01T01:51:44;5.63;;;2.23;;
18174;SDS011;9212;50.894;16.714;2022-09-01T01:54:12;5.00;;;2.30;;
18174;SDS011;9212;50.894;16.714;2022-09-01T01:56:40;5.40;;;2.17;;
18174;SDS011;9212;50.894;16.714;2022-09-01T01:59:08;2.87;;;1.90;;
18174;SDS011;9212;50.894;16.714;2022-09-01T02:01:39;2.47;;;2.27;;
18174;SDS011;9212;50.894;16.714;2022-09-01T02:04:08;3.43;;;2.17;;
18174;SDS011;9212;50.894;16.714;2022-09-01T02:06:36;3.53;;;2.23;;
18174;SDS011;9212;50.894;16.714;2022-09-01T02:09:05;2.60;;;2.00;;
18174;SDS011;9212;50.894;16.714;2022-09-01T02:11:33;5.00;;;2.10;;
18174;SDS011;9212;50.894;16.714;2022-09-01T02:14:02;1.93;;;1.73;;
18174;SDS011;9212;50.894;16.714;2022-09-01T02:16:32;2.03;;;1.90;;
18174;SDS011;9212;50.894;16.714;2022-09-01T02:19:00;2.60;;;2.20;;
18174;SDS011;9212;50.894;16.714;2022-09-01T02:21:31;3.53;;;2.10;;
18174;SDS011;9212;50.894;16.714;2022-09-01T02:23:58;2.10;;;1.90;;
18174;SDS011;9212;50.894;16.714;2022-09-01T02:26:28;3.13;;;2.20;;
18174;SDS011;9212;50.894;16.714;2022-09-01T02:28:56;4.10;;;1.87;;
18174;SDS011;9212;50.894;16.714;2022-09-01T02:31:28;2.40;;;1.97;;
18174;SDS011;9212;50.894;16.714;2022-09-01T02:34:01;8.23;;;2.10;;
18174;SDS011;9212;50.894;16.714;2022-09-01T02:36:28;7.53;;;2.07;;
18174;SDS011;9212;50.894;16.714;2022-09-01T02:38:59;5.47;;;2.53;;
18174;SDS011;9212;50.894;16.714;2022-09-01T02:41:26;4.77;;;2.30;;
18174;SDS011;9212;50.894;16.714;2022-09-01T02:43:56;3.30;;;2.30;;
18174;SDS011;9212;50.894;16.714;2022-09-01T02:46:26;2.47;;;2.20;;
18174;SDS011;9212;50.894;16.714;2022-09-01T02:48:53;5.90;;;2.33;;
18174;SDS011;9212;50.894;16.714;2022-09-01T02:51:23;2.80;;;2.50;;
18174;SDS011;9212;50.894;16.714;2022-09-01T02:53:50;3.07;;;2.33;;
18174;SDS011;9212;50.894;16.714;2022-09-01T02:56:19;3.90;;;2.50;;
18174;SDS011;9212;50.894;16.714;2022-09-01T02:58:47;6.37;;;2.67;;
18174;SDS011;9212;50.894;16.714;2022-09-01T03:01:17;4.43;;;2.47;;
18174;SDS011;9212;50.894;16.714;2022-09-01T03:03:46;5.73;;;2.70;;
18174;SDS011;9212;50.894;16.714;2022-09-01T03:06:14;3.57;;;2.50;;
18174;SDS011;9212;50.894;16.714;2022-09-01T03:08:45;7.10;;;2.53;;
18174;SDS011;9212;50.894;16.714;2022-09-01T03:11:12;2.23;;;1.90;;
18174;SDS011;9212;50.894;16.714;2022-09-01T03:13:39;5.27;;;2.23;;
18174;SDS011;9212;50.894;16.714;2022-09-01T03:16:07;3.67;;;2.30;;
18174;SDS011;9212;50.894;16.714;2022-09-01T03:18:35;3.80;;;2.20;;
18174;SDS011;9212;50.894;16.714;2022-09-01T03:21:03;8.33;;;2.37;;
18174;SDS011;9212;50.894;16.714;2022-09-01T03:23:31;2.43;;;2.17;;
18174;SDS011;9212;50.894;16.714;2022-09-01T03:26:00;4.20;;;2.20;;
18174;SDS011;9212;50.894;16.714;2022-09-01T03:28:27;4.33;;;2.00;;
18174;SDS011;9212;50.894;16.714;2022-09-01T03:30:56;2.63;;;2.03;;
18174;SDS011;9212;50.894;16.714;2022-09-01T03:33:24;4.90;;;2.30;;
18174;SDS011;9212;50.894;16.714;2022-09-01T03:35:54;4.03;;;2.50;;
18174;SDS011;9212;50.894;16.714;2022-09-01T03:38:22;2.67;;;2.00;;
18174;SDS011;9212;50.894;16.714;2022-09-01T03:40:51;5.23;;;2.50;;
18174;SDS011;9212;50.894;16.714;2022-09-01T03:43:24;2.40;;;2.20;;
18174;SDS011;9212;50.894;16.714;2022-09-01T03:45:53;4.53;;;2.00;;
18174;SDS011;9212;50.894;16.714;2022-09-01T03:48:22;6.53;;;2.30;;
18174;SDS011;9212;50.894;16.714;2022-09-01T03:50:53;4.37;;;1.93;;
18174;SDS011;9212;50.894;16.714;2022-09-01T03:53:21;6.60;;;2.53;;
18174;SDS011;9212;50.894;16.714;2022-09-01T03:55:51;3.47;;;2.00;;
18174;SDS011;9212;50.894;16.714;2022-09-01T03:58:22;2.43;;;2.00;;
18174;SDS011;9212;50.894;16.714;2022-09-01T04:00:51;3.07;;;2.53;;
18174;SDS011;9212;50.894;16.714;2022-09-01T04:03:21;2.23;;;2.00;;
18174;SDS011;9212;50.894;16.714;2022-09-01T04:05:50;4.07;;;2.37;;
18174;SDS011;9212;50.894;16.714;2022-09-01T04:08:19;2.57;;;1.80;;
18174;SDS011;9212;50.894;16.714;2022-09-01T04:10:47;2.50;;;2.10;;
18174;SDS011;9212;50.894;16.714;2022-09-01T04:13:16;3.83;;;2.30;;
18174;SDS011;9212;50.894;16.714;2022-09-01T04:15:45;3.43;;;2.07;;
18174;SDS011;9212;50.894;16.714;2022-09-01T04:18:13;7.73;;;2.30;;
18174;SDS011;9212;50.894;16.714;2022-09-01T04:20:45;3.17;;;2.20;;
18174;SDS011;9212;50.894;16.714;2022-09-01T04:23:17;4.47;;;2.03;;
18174;SDS011;9212;50.894;16.714;2022-09-01T04:25:51;5.90;;;2.00;;
18174;SDS011;9212;50.894;16.714;2022-09-01T04:28:21;3.17;;;1.80;;
18174;SDS011;9212;50.894;16.714;2022-09-01T04:30:55;4.03;;;2.07;;
18174;SDS011;9212;50.894;16.714;2022-09-01T04:33:23;2.83;;;1.97;;
18174;SDS011;9212;50.894;16.714;2022-09-01T04:35:51;7.57;;;1.90;;
18174;SDS011;9212;50.894;16.714;2022-09-01T04:38:21;3.33;;;2.27;;
18174;SDS011;9212;50.894;16.714;2022-09-01T04:40:50;4.37;;;2.20;;
18174;SDS011;9212;50.894;16.714;2022-09-01T04:43:21;3.23;;;1.80;;
18174;SDS011;9212;50.894;16.714;2022-09-01T04:45:48;2.20;;;2.07;;
18174;SDS011;9212;50.894;16.714;2022-09-01T04:48:18;6.03;;;2.20;;
18174;SDS011;9212;50.894;16.714;2022-09-01T04:50:46;2.23;;;1.97;;
18174;SDS011;9212;50.894;16.714;2022-09-01T04:53:16;2.07;;;1.97;;
18174;SDS011;9212;50.894;16.714;2022-09-01T04:55:43;7.30;;;2.10;;
18174;SDS011;9212;50.894;16.714;2022-09-01T04:58:12;2.77;;;1.90;;
18174;SDS011;9212;50.894;16.714;2022-09-01T05:00:42;4.07;;;2.30;;
18174;SDS011;9212;50.894;16.714;2022-09-01T05:03:12;4.93;;;2.10;;
18174;SDS011;9212;50.894;16.714;2022-09-01T05:05:44;5.77;;;2.17;;
18174;SDS011;9212;50.894;16.714;2022-09-01T05:08:11;3.93;;;1.70;;
18174;SDS011;9212;50.894;16.714;2022-09-01T05:10:41;7.50;;;2.27;;
18174;SDS011;9212;50.894;16.714;2022-09-01T05:13:09;4.00;;;1.90;;
18174;SDS011;9212;50.894;16.714;2022-09-01T05:15:38;3.70;;;2.40;;
18174;SDS011;9212;50.894;16.714;2022-09-01T05:18:11;3.40;;;2.03;;
18174;SDS011;9212;50.894;16.714;2022-09-01T05:20:40;4.83;;;1.97;;
18174;SDS011;9212;50.894;16.714;2022-09-01T05:23:10;3.33;;;2.13;;
18174;SDS011;9212;50.894;16.714;2022-09-01T05:25:39;7.03;;;2.10;;
18174;SDS011;9212;50.894;16.714;2022-09-01T05:28:08;3.67;;;1.83;;
18174;SDS011;9212;50.894;16.714;2022-09-01T05:30:37;5.67;;;2.30;;
18174;SDS011;9212;50.894;16.714;2022-09-01T05:33:06;4.30;;;2.47;;
18174;SDS011;9212;50.894;16.714;2022-09-01T05:35:36;2.47;;;2.27;;
18174;SDS011;9212;50.894;16.714;2022-09-01T05:38:07;7.23;;;2.43;;
18174;SDS011;9212;50.894;16.714;2022-09-01T05:40:38;2.67;;;2.30;;
18174;SDS011;9212;50.894;16.714;2022-09-01T05:43:06;3.47;;;2.37;;
18174;SDS011;9212;50.894;16.714;2022-09-01T05:45:37;2.53;;;2.33;;
18174;SDS011;9212;50.894;16.714;2022-09-01T05:48:08;3.00;;;2.70;;
18174;SDS011;9212;50.894;16.714;2022-09-01T05:50:38;6.73;;;3.90;;
18174;SDS011;9212;50.894;16.714;2022-09-01T05:53:07;8.50;;;4.90;;
18174;SDS011;9212;50.894;16.714;2022-09-01T05:55:41;12.23;;;3.83;;
18174;SDS011;9212;50.894;16.714;2022-09-01T05:58:09;6.10;;;4.37;;
18174;SDS011;9212;50.894;16.714;2022-09-01T06:00:38;12.53;;;4.37;;
18174;SDS011;9212;50.894;16.714;2022-09-01T06:03:06;8.70;;;4.57;;
18174;SDS011;9212;50.894;16.714;2022-09-01T06:05:35;8.13;;;4.60;;
18174;SDS011;9212;50.894;16.714;2022-09-01T06:08:02;7.33;;;4.30;;
18174;SDS011;9212;50.894;16.714;2022-09-01T06:10:34;6.20;;;4.40;;
18174;SDS011;9212;50.894;16.714;2022-09-01T06:13:04;7.10;;;4.13;;
18174;SDS011;9212;50.894;16.714;2022-09-01T06:15:32;6.45;;;4.47;;
18174;SDS011;9212;50.894;16.714;2022-09-01T06:18:00;7.57;;;4.65;;
18174;SDS011;9212;50.894;16.714;2022-09-01T06:20:29;8.63;;;4.57;;
18174;SDS011;9212;50.894;16.714;2022-09-01T06:22:56;5.78;;;4.35;;
18174;SDS011;9212;50.894;16.714;2022-09-01T06:25:23;13.18;;;4.60;;
18174;SDS011;9212;50.894;16.714;2022-09-01T06:27:56;5.35;;;4.20;;
18174;SDS011;9212;50.894;16.714;2022-09-01T06:30:25;8.13;;;4.60;;
18174;SDS011;9212;50.894;16.714;2022-09-01T06:32:52;10.40;;;4.68;;
18174;SDS011;9212;50.894;16.714;2022-09-01T06:35:20;9.88;;;4.05;;
18174;SDS011;9212;50.894;16.714;2022-09-01T06:37:49;7.10;;;4.60;;
18174;SDS011;9212;50.894;16.714;2022-09-01T06:40:16;7.30;;;4.72;;
18174;SDS011;9212;50.894;16.714;2022-09-01T06:42:44;9.85;;;4.65;;
18174;SDS011;9212;50.894;16.714;2022-09-01T06:45:14;7.18;;;4.30;;
18174;SDS011;9212;50.894;16.714;2022-09-01T06:47:43;6.40;;;4.78;;
18174;SDS011;9212;50.894;16.714;2022-09-01T06:50:12;7.25;;;4.22;;
18174;SDS011;9212;50.894;16.714;2022-09-01T06:52:41;14.98;;;5.00;;
18174;SDS011;9212;50.894;16.714;2022-09-01T06:55:08;18.65;;;5.15;;
18174;SDS011;9212;50.894;16.714;2022-09-01T06:57:36;15.52;;;5.18;;
18174;SDS011;9212;50.894;16.714;2022-09-01T07:00:05;7.25;;;4.20;;
18174;SDS011;9212;50.894;16.714;2022-09-01T07:02:43;20.10;;;5.60;;
18174;SDS011;9212;50.894;16.714;2022-09-01T07:05:10;6.68;;;4.20;;
18174;SDS011;9212;50.894;16.714;2022-09-01T07:07:41;7.15;;;4.40;;
18174;SDS011;9212;50.894;16.714;2022-09-01T07:10:15;15.35;;;4.32;;
18174;SDS011;9212;50.894;16.714;2022-09-01T07:12:46;12.02;;;4.78;;
18174;SDS011;9212;50.894;16.714;2022-09-01T07:15:14;8.77;;;3.95;;
18174;SDS011;9212;50.894;16.714;2022-09-01T07:17:44;7.03;;;4.40;;
18174;SDS011;9212;50.894;16.714;2022-09-01T07:20:14;7.97;;;4.20;;
18174;SDS011;9212;50.894;16.714;2022-09-01T07:22:41;6.95;;;4.07;;
18174;SDS011;9212;50.894;16.714;2022-09-01T07:25:09;10.00;;;4.30;;
18174;SDS011;9212;50.894;16.714;2022-09-01T07:27:36;7.60;;;4.70;;
18174;SDS011;9212;50.894;16.714;2022-09-01T07:30:05;11.52;;;4.35;;
18174;SDS011;9212;50.894;16.714;2022-09-01T07:32:33;7.10;;;3.80;;
18174;SDS011;9212;50.894;16.714;2022-09-01T07:35:03;8.02;;;4.20;;
18174;SDS011;9212;50.894;16.714;2022-09-01T07:37:33;7.65;;;3.78;;
18174;SDS011;9212;50.894;16.714;2022-09-01T07:40:02;9.75;;;3.42;;
18174;SDS011;9212;50.894;16.714;2022-09-01T07:42:32;4.22;;;3.30;;
18174;SDS011;9212;50.894;16.714;2022-09-01T07:44:59;5.18;;;3.53;;
18174;SDS011;9212;50.894;16.714;2022-09-01T07:47:28;5.93;;;3.63;;
18174;SDS011;9212;50.894;16.714;2022-09-01T07:49:55;7.45;;;4.10;;
18174;SDS011;9212;50.894;16.714;2022-09-01T07:52:25;4.28;;;3.15;;
18174;SDS011;9212;50.894;16.714;2022-09-01T07:54:55;9.50;;;3.13;;
18174;SDS011;9212;50.894;16.714;2022-09-01T07:57:22;10.05;;;3.50;;
18174;SDS011;9212;50.894;16.714;2022-09-01T07:59:50;4.15;;;3.17;;
18174;SDS011;9212;50.894;16.714;2022-09-01T08:02:19;8.30;;;3.65;;
18174;SDS011;9212;50.894;16.714;2022-09-01T08:04:48;8.80;;;3.22;;
18174;SDS011;9212;50.894;16.714;2022-09-01T08:07:15;9.18;;;2.90;;
18174;SDS011;9212;50.894;16.714;2022-09-01T08:09:44;6.30;;;3.65;;
18174;SDS011;9212;50.894;16.714;2022-09-01T08:12:11;8.30;;;3.83;;
18174;SDS011;9212;50.894;16.714;2022-09-01T08:14:38;6.97;;;3.70;;
18174;SDS011;9212;50.894;16.714;2022-09-01T08:17:05;12.60;;;3.28;;
18174;SDS011;9212;50.894;16.714;2022-09-01T08:19:32;6.63;;;3.35;;
18174;SDS011;9212;50.894;16.714;2022-09-01T08:22:00;4.20;;;2.75;;
18174;SDS011;9212;50.894;16.714;2022-09-01T08:24:27;3.03;;;2.67;;
18174;SDS011;9212;50.894;16.714;2022-09-01T08:26:55;2.63;;;2.40;;
18174;SDS011;9212;50.894;16.714;2022-09-01T08:29:22;5.70;;;3.00;;
18174;SDS011;9212;50.894;16.714;2022-09-01T08:31:49;3.25;;;2.15;;
18174;SDS011;9212;50.894;16.714;2022-09-01T08:34:17;3.42;;;2.08;;
18174;SDS011;9212;50.894;16.714;2022-09-01T08:36:44;4.50;;;2.17;;
18174;SDS011;9212;50.894;16.714;2022-09-01T08:39:11;2.70;;;2.30;;
18174;SDS011;9212;50.894;16.714;2022-09-01T08:41:41;3.80;;;2.22;;
18174;SDS011;9212;50.894;16.714;2022-09-01T08:44:17;1.95;;;1.80;;
18174;SDS011;9212;50.894;16.714;2022-09-01T08:46:53;3.97;;;2.17;;
18174;SDS011;9212;50.894;16.714;2022-09-01T08:49:24;4.32;;;1.80;;
18174;SDS011;9212;50.894;16.714;2022-09-01T08:51:53;2.28;;;1.88;;
18174;SDS011;9212;50.894;16.714;2022-09-01T08:54:24;4.85;;;2.10;;
18174;SDS011;9212;50.894;16.714;2022-09-01T08:56:57;3.40;;;1.80;;
18174;SDS011;9212;50.894;16.714;2022-09-01T08:59:27;6.40;;;2.00;;
18174;SDS011;9212;50.894;16.714;2022-09-01T09:01:57;3.05;;;1.95;;
18174;SDS011;9212;50.894;16.714;2022-09-01T09:04:38;2.83;;;2.00;;
18174;SDS011;9212;50.894;16.714;2022-09-01T09:07:18;4.53;;;1.80;;
18174;SDS011;9212;50.894;16.714;2022-09-01T09:09:55;4.88;;;1.88;;
18174;SDS011;9212;50.894;16.714;2022-09-01T09:12:31;3.25;;;1.90;;
18174;SDS011;9212;50.894;16.714;2022-09-01T09:15:18;3.55;;;2.05;;
18174;SDS011;9212;50.894;16.714;2022-09-01T09:17:51;5.22;;;1.90;;
18174;SDS011;9212;50.894;16.714;2022-09-01T09:20:25;5.20;;;1.95;;
18174;SDS011;9212;50.894;16.714;2022-09-01T09:22:52;2.67;;;1.80;;
18174;SDS011;9212;50.894;16.714;2022-09-01T09:25:20;2.67;;;2.00;;
18174;SDS011;9212;50.894;16.714;2022-09-01T09:27:48;2.92;;;1.90;;
18174;SDS011;9212;50.894;16.714;2022-09-01T09:30:19;3.15;;;1.88;;
18174;SDS011;9212;50.894;16.714;2022-09-01T09:32:51;1.90;;;1.60;;
18174;SDS011;9212;50.894;16.714;2022-09-01T09:35:22;6.13;;;1.65;;
18174;SDS011;9212;50.894;16.714;2022-09-01T09:37:51;4.38;;;2.17;;
18174;SDS011;9212;50.894;16.714;2022-09-01T09:40:19;4.60;;;2.00;;
18174;SDS011;9212;50.894;16.714;2022-09-01T09:43:01;3.03;;;1.73;;
18174;SDS011;9212;50.894;16.714;2022-09-01T09:45:35;6.95;;;1.75;;
18174;SDS011;9212;50.894;16.714;2022-09-01T09:48:04;2.88;;;1.90;;
18174;SDS011;9212;50.894;16.714;2022-09-01T09:50:34;3.13;;;2.00;;
18174;SDS011;9212;50.894;16.714;2022-09-01T09:53:13;3.65;;;2.05;;
18174;SDS011;9212;50.894;16.714;2022-09-01T09:55:57;2.13;;;1.65;;
18174;SDS011;9212;50.894;16.714;2022-09-01T09:58:26;3.53;;;1.90;;
18174;SDS011;9212;50.894;16.714;2022-09-01T10:01:03;1.65;;;1.55;;
18174;SDS011;9212;50.894;16.714;2022-09-01T10:03:39;3.22;;;1.73;;
18174;SDS011;9212;50.894;16.714;2022-09-01T10:06:09;3.03;;;1.40;;
18174;SDS011;9212;50.894;16.714;2022-09-01T10:08:40;5.72;;;1.60;;
18174;SDS011;9212;50.894;16.714;2022-09-01T10:11:10;7.55;;;1.60;;
18174;SDS011;9212;50.894;16.714;2022-09-01T10:13:51;4.18;;;1.80;;
18174;SDS011;9212;50.894;16.714;2022-09-01T10:16:22;4.15;;;1.48;;
18174;SDS011;9212;50.894;16.714;2022-09-01T10:18:53;2.78;;;1.60;;
18174;SDS011;9212;50.894;16.714;2022-09-01T10:21:25;1.73;;;1.50;;
18174;SDS011;9212;50.894;16.714;2022-09-01T10:23:59;2.35;;;1.40;;
18174;SDS011;9212;50.894;16.714;2022-09-01T10:26:39;1.88;;;1.30;;
18174;SDS011;9212;50.894;16.714;2022-09-01T10:29:10;8.98;;;1.50;;
18174;SDS011;9212;50.894;16.714;2022-09-01T10:31:41;1.42;;;1.23;;
18174;SDS011;9212;50.894;16.714;2022-09-01T10:34:10;6.93;;;1.48;;
18174;SDS011;9212;50.894;16.714;2022-09-01T10:36:41;1.20;;;1.13;;
18174;SDS011;9212;50.894;16.714;2022-09-01T10:39:10;1.42;;;1.33;;
18174;SDS011;9212;50.894;16.714;2022-09-01T10:41:43;1.40;;;1.30;;
18174;SDS011;9212;50.894;16.714;2022-09-01T10:44:19;2.55;;;1.58;;
18174;SDS011;9212;50.894;16.714;2022-09-01T10:46:50;1.45;;;1.20;;
18174;SDS011;9212;50.894;16.714;2022-09-01T10:49:19;1.30;;;1.20;;
18174;SDS011;9212;50.894;16.714;2022-09-01T10:51:50;2.88;;;1.30;;
18174;SDS011;9212;50.894;16.714;2022-09-01T10:57:33;1.60;;;1.27;;
18174;SDS011;9212;50.894;16.714;2022-09-01T11:09:26;1.27;;;1.10;;
18174;SDS011;9212;50.894;16.714;2022-09-01T11:12:18;1.38;;;1.15;;
18174;SDS011;9212;50.894;16.714;2022-09-01T11:14:56;2.95;;;1.10;;
18174;SDS011;9212;50.894;16.714;2022-09-01T11:17:26;1.55;;;1.08;;
18174;SDS011;9212;50.894;16.714;2022-09-01T11:19:58;2.05;;;0.95;;
18174;SDS011;9212;50.894;16.714;2022-09-01T11:22:33;0.93;;;0.93;;
18174;SDS011;9212;50.894;16.714;2022-09-01T11:25:06;2.03;;;1.13;;
18174;SDS011;9212;50.894;16.714;2022-09-01T11:27:55;2.03;;;0.95;;
18174;SDS011;9212;50.894;16.714;2022-09-01T11:30:33;1.48;;;0.90;;
18174;SDS011;9212;50.894;16.714;2022-09-01T11:33:10;1.95;;;1.20;;
18174;SDS011;9212;50.894;16.714;2022-09-01T11:35:55;1.10;;;1.10;;
18174;SDS011;9212;50.894;16.714;2022-09-01T11:38:26;2.15;;;0.98;;
18174;SDS011;9212;50.894;16.714;2022-09-01T11:40:57;3.08;;;1.50;;
18174;SDS011;9212;50.894;16.714;2022-09-01T11:43:24;1.73;;;0.88;;
18174;SDS011;9212;50.894;16.714;2022-09-01T11:45:55;2.95;;;1.10;;
18174;SDS011;9212;50.894;16.714;2022-09-01T11:48:31;1.40;;;1.17;;
18174;SDS011;9212;50.894;16.714;2022-09-01T11:51:00;2.40;;;1.00;;
18174;SDS011;9212;50.894;16.714;2022-09-01T11:53:29;5.05;;;1.20;;
18174;SDS011;9212;50.894;16.714;2022-09-01T11:56:10;2.10;;;0.80;;
18174;SDS011;9212;50.894;16.714;2022-09-01T11:58:39;3.58;;;1.20;;
18174;SDS011;9212;50.894;16.714;2022-09-01T12:01:16;3.53;;;1.33;;
18174;SDS011;9212;50.894;16.714;2022-09-01T12:03:45;3.42;;;1.17;;
18174;SDS011;9212;50.894;16.714;2022-09-01T12:06:19;1.20;;;0.95;;
18174;SDS011;9212;50.894;16.714;2022-09-01T12:08:53;1.00;;;1.00;;
18174;SDS011;9212;50.894;16.714;2022-09-01T12:11:23;5.30;;;1.20;;
18174;SDS011;9212;50.894;16.714;2022-09-01T12:13:55;2.85;;;1.10;;
18174;SDS011;9212;50.894;16.714;2022-09-01T12:16:24;1.73;;;0.90;;
18174;SDS011;9212;50.894;16.714;2022-09-01T12:18:53;5.72;;;1.30;;
18174;SDS011;9212;50.894;16.714;2022-09-01T12:21:25;5.10;;;1.92;;
18174;SDS011;9212;50.894;16.714;2022-09-01T12:23:53;1.15;;;0.90;;
18174;SDS011;9212;50.894;16.714;2022-09-01T12:26:37;4.15;;;1.02;;
18174;SDS011;9212;50.894;16.714;2022-09-01T12:29:06;5.18;;;1.17;;
18174;SDS011;9212;50.894;16.714;2022-09-01T12:31:35;2.38;;;1.40;;
18174;SDS011;9212;50.894;16.714;2022-09-01T12:34:05;2.75;;;1.30;;
18174;SDS011;9212;50.894;16.714;2022-09-01T12:37:02;4.10;;;2.10;;
18174;SDS011;9212;50.894;16.714;2022-09-01T12:39:32;3.80;;;2.75;;
18174;SDS011;9212;50.894;16.714;2022-09-01T12:42:01;5.13;;;2.78;;
18174;SDS011;9212;50.894;16.714;2022-09-01T12:44:32;4.63;;;2.60;;
18174;SDS011;9212;50.894;16.714;2022-09-01T12:47:01;3.88;;;2.20;;
18174;SDS011;9212;50.894;16.714;2022-09-01T12:49:35;2.40;;;1.20;;
18174;SDS011;9212;50.894;16.714;2022-09-01T12:52:20;1.48;;;1.25;;
18174;SDS011;9212;50.894;16.714;2022-09-01T12:54:50;1.15;;;1.00;;
18174;SDS011;9212;50.894;16.714;2022-09-01T12:57:23;2.05;;;1.10;;
18174;SDS011;9212;50.894;16.714;2022-09-01T13:00:12;2.78;;;0.95;;
18174;SDS011;9212;50.894;16.714;2022-09-01T13:02:42;1.45;;;1.00;;
18174;SDS011;9212;50.894;16.714;2022-09-01T13:05:18;2.08;;;0.88;;
18174;SDS011;9212;50.894;16.714;2022-09-01T13:07:48;6.95;;;0.90;;
18174;SDS011;9212;50.894;16.714;2022-09-01T13:10:15;2.53;;;0.88;;
18174;SDS011;9212;50.894;16.714;2022-09-01T13:12:42;1.55;;;0.80;;
18174;SDS011;9212;50.894;16.714;2022-09-01T13:15:10;2.03;;;0.80;;
18174;SDS011;9212;50.894;16.714;2022-09-01T13:17:37;0.77;;;0.77;;
18174;SDS011;9212;50.894;16.714;2022-09-01T13:20:05;0.80;;;0.80;;
18174;SDS011;9212;50.894;16.714;2022-09-01T13:22:32;1.10;;;0.63;;
18174;SDS011;9212;50.894;16.714;2022-09-01T13:25:03;1.45;;;0.90;;
18174;SDS011;9212;50.894;16.714;2022-09-01T13:27:30;2.08;;;0.82;;
18174;SDS011;9212;50.894;16.714;2022-09-01T13:29:57;2.25;;;0.80;;
18174;SDS011;9212;50.894;16.714;2022-09-01T13:32:25;2.83;;;0.90;;
18174;SDS011;9212;50.894;16.714;2022-09-01T13:34:52;0.55;;;0.55;;
18174;SDS011;9212;50.894;16.714;2022-09-01T13:37:19;1.10;;;0.90;;
18174;SDS011;9212;50.894;16.714;2022-09-01T13:39:47;0.68;;;0.68;;
18174;SDS011;9212;50.894;16.714;2022-09-01T13:42:16;0.60;;;0.60;;
18174;SDS011;9212;50.894;16.714;2022-09-01T13:44:43;3.10;;;0.98;;
18174;SDS011;9212;50.894;16.714;2022-09-01T13:47:11;1.42;;;0.70;;
18174;SDS011;9212;50.894;16.714;2022-09-01T13:49:38;1.52;;;0.82;;
18174;SDS011;9212;50.894;16.714;2022-09-01T13:52:05;1.27;;;1.00;;
18174;SDS011;9212;50.894;16.714;2022-09-01T13:54:32;1.48;;;0.70;;
18174;SDS011;9212;50.894;16.714;2022-09-01T13:56:59;1.00;;;0.90;;
18174;SDS011;9212;50.894;16.714;2022-09-01T13:59:28;3.95;;;0.90;;
18174;SDS011;9212;50.894;16.714;2022-09-01T14:01:56;1.75;;;0.85;;
18174;SDS011;9212;50.894;16.714;2022-09-01T14:04:23;1.52;;;0.80;;
18174;SDS011;9212;50.894;16.714;2022-09-01T14:06:50;1.27;;;0.77;;
18174;SDS011;9212;50.894;16.714;2022-09-01T14:09:17;1.63;;;0.77;;
18174;SDS011;9212;50.894;16.714;2022-09-01T14:11:44;0.50;;;0.50;;
18174;SDS011;9212;50.894;16.714;2022-09-01T14:14:12;0.77;;;0.70;;
18174;SDS011;9212;50.894;16.714;2022-09-01T14:16:40;2.78;;;0.70;;
18174;SDS011;9212;50.894;16.714;2022-09-01T14:19:07;1.55;;;0.60;;
18174;SDS011;9212;50.894;16.714;2022-09-01T14:21:36;2.03;;;1.00;;
18174;SDS011;9212;50.894;16.714;2022-09-01T14:24:03;0.85;;;0.70;;
18174;SDS011;9212;50.894;16.714;2022-09-01T14:26:30;2.28;;;0.93;;
18174;SDS011;9212;50.894;16.714;2022-09-01T14:28:57;0.70;;;0.70;;
18174;SDS011;9212;50.894;16.714;2022-09-01T14:31:26;1.38;;;0.90;;
18174;SDS011;9212;50.894;16.714;2022-09-01T14:33:55;1.85;;;0.80;;
18174;SDS011;9212;50.894;16.714;2022-09-01T14:36:23;7.60;;;1.65;;
18174;SDS011;9212;50.894;16.714;2022-09-01T14:38:51;0.88;;;0.80;;
18174;SDS011;9212;50.894;16.714;2022-09-01T14:41:20;0.75;;;0.65;;
18174;SDS011;9212;50.894;16.714;2022-09-01T14:43:49;0.50;;;0.50;;
18174;SDS011;9212;50.894;16.714;2022-09-01T14:46:16;0.60;;;0.60;;
18174;SDS011;9212;50.894;16.714;2022-09-01T14:48:44;2.25;;;0.60;;
18174;SDS011;9212;50.894;16.714;2022-09-01T14:51:19;1.23;;;0.52;;
18174;SDS011;9212;50.894;16.714;2022-09-01T14:53:48;1.02;;;0.70;;
18174;SDS011;9212;50.894;16.714;2022-09-01T14:56:16;3.38;;;0.55;;
18174;SDS011;9212;50.894;16.714;2022-09-01T14:58:43;0.73;;;0.50;;
18174;SDS011;9212;50.894;16.714;2022-09-01T15:01:11;1.88;;;0.52;;
18174;SDS011;9212;50.894;16.714;2022-09-01T15:03:39;0.82;;;0.50;;
18174;SDS011;9212;50.894;16.714;2022-09-01T15:06:06;2.40;;;0.70;;
18174;SDS011;9212;50.894;16.714;2022-09-01T15:08:35;3.40;;;0.80;;
18174;SDS011;9212;50.894;16.714;2022-09-01T15:11:02;1.77;;;0.88;;
18174;SDS011;9212;50.894;16.714;2022-09-01T15:13:29;1.00;;;0.90;;
18174;SDS011;9212;50.894;16.714;2022-09-01T15:15:56;3.10;;;1.13;;
18174;SDS011;9212;50.894;16.714;2022-09-01T15:18:23;3.38;;;1.20;;